createdAt,value
2019-02-06T00:00:58.351Z,1.24
2019-02-06T00:01:58.366Z,1.30
2019-02-06T00:02:58.327Z,1.29
2019-02-06T00:03:58.316Z,1.12
2019-02-06T00:04:58.320Z,1.12
2019-02-06T00:05:58.329Z,1.18
2019-02-06T00:06:58.291Z,1.04
2019-02-06T00:07:58.278Z,1.05
2019-02-06T00:08:58.265Z,0.96
2019-02-06T00:09:58.280Z,0.86
2019-02-06T00:10:58.242Z,0.88
2019-02-06T00:11:58.235Z,0.88
2019-02-06T00:12:58.222Z,0.80
2019-02-06T00:13:58.211Z,0.84
2019-02-06T00:14:58.222Z,0.78
2019-02-06T00:15:58.234Z,0.80
2019-02-06T00:16:58.189Z,0.88
2019-02-06T00:17:58.178Z,0.80
2019-02-06T00:18:58.156Z,0.90
2019-02-06T00:19:58.153Z,0.87
2019-02-06T00:20:58.154Z,0.88
2019-02-06T00:21:58.147Z,0.78
2019-02-06T00:22:58.111Z,0.88
2019-02-06T00:23:58.100Z,0.75
2019-02-06T00:24:58.096Z,0.72
2019-02-06T00:25:58.103Z,0.76
2019-02-06T00:26:58.067Z,0.84
2019-02-06T00:27:58.073Z,0.79
2019-02-06T00:28:58.053Z,0.70
2019-02-06T00:29:58.041Z,0.80
2019-02-06T00:30:58.041Z,0.68
2019-02-06T00:31:58.014Z,0.72
2019-02-06T00:32:58.004Z,0.83
2019-02-06T00:33:57.995Z,0.65
2019-02-06T00:34:57.988Z,0.68
2019-02-06T00:35:57.993Z,0.72
2019-02-06T00:36:57.967Z,0.70
2019-02-06T00:37:57.952Z,0.76
2019-02-06T00:38:57.937Z,0.62
2019-02-06T00:39:57.942Z,0.58
2019-02-06T00:40:57.960Z,0.69
2019-02-06T00:41:57.939Z,0.62
2019-02-06T00:42:57.915Z,0.57
2019-02-06T00:43:57.884Z,0.61
2019-02-06T00:44:57.876Z,0.65
2019-02-06T00:45:57.892Z,0.66
2019-02-06T00:46:57.879Z,0.53
2019-02-06T00:47:57.841Z,0.50
2019-02-06T00:48:57.832Z,0.50
2019-02-06T00:49:57.820Z,0.51
2019-02-06T00:50:57.813Z,0.50
2019-02-06T00:51:57.815Z,0.55
2019-02-06T00:52:57.789Z,0.53
2019-02-06T00:53:57.781Z,0.49
2019-02-06T00:54:58.274Z,0.50
2019-02-06T00:55:57.762Z,0.46
2019-02-06T00:56:57.767Z,0.41
2019-02-06T00:57:57.735Z,0.42
2019-02-06T00:58:57.726Z,0.44
2019-02-06T00:59:58.518Z,0.42
2019-02-06T01:00:57.717Z,0.46
2019-02-06T01:01:57.712Z,0.47
2019-02-06T01:02:57.683Z,0.38
2019-02-06T01:03:57.673Z,0.41
2019-02-06T01:04:57.752Z,0.36
2019-02-06T01:05:57.657Z,0.46
2019-02-06T01:06:57.657Z,0.41
2019-02-06T01:07:57.622Z,0.33
2019-02-06T01:08:57.614Z,0.44
2019-02-06T01:09:57.603Z,0.32
2019-02-06T01:10:57.591Z,0.32
2019-02-06T01:11:57.616Z,0.28
2019-02-06T01:12:57.571Z,0.28
2019-02-06T01:13:57.560Z,0.31
2019-02-06T01:14:57.550Z,0.23
2019-02-06T01:15:57.536Z,0.20
2019-02-06T01:16:57.545Z,0.20
2019-02-06T01:17:57.539Z,0.20
2019-02-06T01:18:57.514Z,0.07
2019-02-06T01:19:57.497Z,0.04
2019-02-06T01:20:57.549Z,0.07
2019-02-06T01:21:57.478Z,-0.04
2019-02-06T01:22:57.486Z,0.08
2019-02-06T01:23:57.464Z,0.11
2019-02-06T01:24:57.451Z,-0.07
2019-02-06T01:25:57.435Z,-0.01
2019-02-06T01:26:57.418Z,0.02
2019-02-06T01:27:57.429Z,0.07
2019-02-06T01:28:57.398Z,-0.03
2019-02-06T01:29:57.387Z,-0.01
2019-02-06T01:30:57.388Z,0.07
2019-02-06T01:31:57.364Z,-0.07
2019-02-06T01:32:57.430Z,0.00
2019-02-06T01:33:57.363Z,-0.07
2019-02-06T01:34:57.332Z,-0.10
2019-02-06T01:35:57.321Z,-0.05
2019-02-06T01:36:57.321Z,-0.18
2019-02-06T01:37:57.319Z,-0.22
2019-02-06T01:38:57.318Z,-0.11
2019-02-06T01:39:57.284Z,-0.25
2019-02-06T01:40:57.266Z,-0.34
2019-02-06T01:41:57.274Z,-0.34
2019-02-06T01:42:57.250Z,-0.31
2019-02-06T01:43:57.258Z,-0.29
2019-02-06T01:44:57.222Z,-0.26
2019-02-06T01:45:57.229Z,-0.25
2019-02-06T01:46:57.208Z,-0.28
2019-02-06T01:47:57.203Z,-0.37
2019-02-06T01:48:57.198Z,-0.29
2019-02-06T01:49:57.175Z,-0.33
2019-02-06T01:50:57.158Z,-0.26
2019-02-06T01:51:57.147Z,-0.29
2019-02-06T01:52:57.138Z,-0.29
2019-02-06T01:53:57.151Z,-0.36
2019-02-06T01:54:57.130Z,-0.44
2019-02-06T01:55:57.103Z,-0.54
2019-02-06T01:56:57.093Z,-0.55
2019-02-06T01:57:57.083Z,-0.55
2019-02-06T01:58:57.095Z,-0.60
2019-02-06T01:59:57.064Z,-0.65
2019-02-06T02:00:57.051Z,-0.64
2019-02-06T02:01:57.039Z,-0.65
2019-02-06T02:02:57.030Z,-0.65
2019-02-06T02:03:57.036Z,-0.65
2019-02-06T02:04:57.023Z,-0.65
2019-02-06T02:06:02.201Z,-0.69
2019-02-06T02:06:58.005Z,-0.64
2019-02-06T02:07:56.973Z,-0.62
2019-02-06T02:08:56.983Z,-0.65
2019-02-06T02:09:56.975Z,-0.62
2019-02-06T02:10:56.942Z,-0.70
2019-02-06T02:11:56.940Z,-0.67
2019-02-06T02:12:56.922Z,-0.58
2019-02-06T02:13:56.910Z,-0.69
2019-02-06T02:14:56.914Z,-0.60
2019-02-06T02:15:56.888Z,-0.64
2019-02-06T02:16:56.878Z,-0.61
2019-02-06T02:17:56.875Z,-0.64
2019-02-06T02:18:56.854Z,-0.67
2019-02-06T02:19:56.864Z,-0.67
2019-02-06T02:20:56.833Z,-0.72
2019-02-06T02:21:56.824Z,-0.75
2019-02-06T02:22:56.817Z,-0.76
2019-02-06T02:23:56.803Z,-0.73
2019-02-06T02:24:56.794Z,-0.83
2019-02-06T02:25:56.808Z,-0.76
2019-02-06T02:26:56.766Z,-0.69
2019-02-06T02:27:56.757Z,-0.75
2019-02-06T02:28:56.757Z,-0.75
2019-02-06T02:29:56.743Z,-0.72
2019-02-06T02:30:56.764Z,-0.75
2019-02-06T02:31:56.717Z,-0.76
2019-02-06T02:32:56.706Z,-0.79
2019-02-06T02:33:56.726Z,-0.75
2019-02-06T02:34:56.690Z,-0.73
2019-02-06T02:35:56.694Z,-0.75
2019-02-06T02:36:56.662Z,-0.70
2019-02-06T02:37:56.663Z,-0.61
2019-02-06T02:38:56.639Z,-0.65
2019-02-06T02:39:56.632Z,-0.70
2019-02-06T02:40:56.650Z,-0.72
2019-02-06T02:41:56.633Z,-0.79
2019-02-06T02:42:56.598Z,-0.79
2019-02-06T02:43:56.592Z,-0.76
2019-02-06T02:44:56.585Z,-0.72
2019-02-06T02:45:56.581Z,-0.79
2019-02-06T02:46:56.570Z,-0.75
2019-02-06T02:47:56.551Z,-0.76
2019-02-06T02:48:56.541Z,-0.72
2019-02-06T02:49:56.522Z,-0.79
2019-02-06T02:50:56.515Z,-0.82
2019-02-06T02:51:56.529Z,-0.78
2019-02-06T02:52:56.490Z,-0.79
2019-02-06T02:53:56.481Z,-0.79
2019-02-06T02:54:56.467Z,-0.75
2019-02-06T02:55:56.481Z,-0.80
2019-02-06T02:56:56.452Z,-0.79
2019-02-06T02:57:56.435Z,-0.73
2019-02-06T02:58:56.423Z,-0.79
2019-02-06T02:59:56.414Z,-0.82
2019-02-06T03:00:56.405Z,-0.78
2019-02-06T03:01:56.407Z,-0.85
2019-02-06T03:02:56.392Z,-0.89
2019-02-06T03:03:56.370Z,-0.80
2019-02-06T03:04:56.363Z,-0.80
2019-02-06T03:05:56.349Z,-0.95
2019-02-06T03:06:56.351Z,-0.91
2019-02-06T03:07:56.343Z,-0.92
2019-02-06T03:08:56.329Z,-0.95
2019-02-06T03:09:56.303Z,-0.97
2019-02-06T03:10:56.291Z,-1.09
2019-02-06T03:11:56.299Z,-1.10
2019-02-06T03:12:56.278Z,-1.04
2019-02-06T03:13:56.261Z,-1.05
2019-02-06T03:14:56.265Z,-1.02
2019-02-06T03:15:56.241Z,-1.16
2019-02-06T03:16:56.243Z,-1.15
2019-02-06T03:17:56.223Z,-1.13
2019-02-06T03:18:56.228Z,-1.10
2019-02-06T03:19:56.199Z,-1.12
2019-02-06T03:20:56.192Z,-1.16
2019-02-06T03:21:56.203Z,-1.07
2019-02-06T03:22:56.214Z,-1.16
2019-02-06T03:23:56.170Z,-1.13
2019-02-06T03:24:56.145Z,-1.10
2019-02-06T03:25:56.136Z,-1.22
2019-02-06T03:26:56.140Z,-1.17
2019-02-06T03:27:56.114Z,-1.12
2019-02-06T03:28:56.118Z,-1.05
2019-02-06T03:29:56.089Z,-1.10
2019-02-06T03:30:56.098Z,-1.09
2019-02-06T03:31:56.096Z,-1.01
2019-02-06T03:32:56.082Z,-1.07
2019-02-06T03:33:56.052Z,-0.99
2019-02-06T03:34:56.033Z,-1.05
2019-02-06T03:35:56.027Z,-0.92
2019-02-06T03:36:56.012Z,-0.94
2019-02-06T03:37:56.018Z,-0.92
2019-02-06T03:38:55.989Z,-1.02
2019-02-06T03:39:55.980Z,-0.95
2019-02-06T03:40:55.990Z,-0.99
2019-02-06T03:41:55.979Z,-0.98
2019-02-06T03:42:55.984Z,-1.04
2019-02-06T03:43:55.943Z,-1.04
2019-02-06T03:44:55.924Z,-0.98
2019-02-06T03:45:55.928Z,-0.99
2019-02-06T03:46:55.904Z,-1.09
2019-02-06T03:47:55.913Z,-1.01
2019-02-06T03:48:55.882Z,-1.16
2019-02-06T03:49:55.883Z,-1.07
2019-02-06T03:50:55.867Z,-0.99
2019-02-06T03:51:55.855Z,-1.15
2019-02-06T03:52:55.858Z,-1.09
2019-02-06T03:53:55.845Z,-1.04
2019-02-06T03:54:55.823Z,-1.10
2019-02-06T03:55:55.808Z,-1.04
2019-02-06T03:56:55.796Z,-1.07
2019-02-06T03:57:55.789Z,-1.02
2019-02-06T03:58:55.799Z,-1.02
2019-02-06T03:59:55.767Z,-1.04
2019-02-06T04:00:55.752Z,-1.12
2019-02-06T04:01:55.753Z,-1.04
2019-02-06T04:02:55.741Z,-0.98
2019-02-06T04:03:55.742Z,-0.99
2019-02-06T04:04:55.728Z,-1.01
2019-02-06T04:05:55.719Z,-1.01
2019-02-06T04:07:01.013Z,-1.04
2019-02-06T04:07:56.675Z,-1.10
2019-02-06T04:08:55.690Z,-1.07
2019-02-06T04:09:55.657Z,-1.12
2019-02-06T04:10:55.693Z,-1.07
2019-02-06T04:11:55.641Z,-1.09
2019-02-06T04:12:55.624Z,-1.02
2019-02-06T04:13:55.648Z,-1.15
2019-02-06T04:14:55.613Z,-1.13
2019-02-06T04:15:55.617Z,-1.04
2019-02-06T04:16:55.595Z,-1.07
2019-02-06T04:17:55.593Z,-1.10
2019-02-06T04:18:55.576Z,-1.16
2019-02-06T04:19:55.555Z,-1.02
2019-02-06T04:20:55.545Z,-1.10
2019-02-06T04:21:55.534Z,-1.13
2019-02-06T04:22:55.534Z,-1.17
2019-02-06T04:23:55.531Z,-1.17
2019-02-06T04:24:55.514Z,-1.13
2019-02-06T04:25:55.489Z,-1.19
2019-02-06T04:26:55.493Z,-1.13
2019-02-06T04:27:55.459Z,-1.13
2019-02-06T04:28:55.476Z,-1.17
2019-02-06T04:29:55.468Z,-1.17
2019-02-06T04:30:55.428Z,-1.17
2019-02-06T04:31:55.423Z,-1.15
2019-02-06T04:32:55.406Z,-1.13
2019-02-06T04:33:55.420Z,-1.07
2019-02-06T04:34:55.385Z,-1.23
2019-02-06T04:35:55.375Z,-1.27
2019-02-06T04:37:06.346Z,-1.19
2019-02-06T04:37:56.356Z,-1.17
2019-02-06T04:38:55.350Z,-1.31
2019-02-06T04:39:55.349Z,-1.33
2019-02-06T04:40:55.329Z,-1.25
2019-02-06T04:41:55.311Z,-1.33
2019-02-06T04:42:55.299Z,-1.23
2019-02-06T04:43:55.290Z,-1.25
2019-02-06T04:44:55.299Z,-1.23
2019-02-06T04:45:55.274Z,-1.23
2019-02-06T04:46:55.261Z,-1.20
2019-02-06T04:47:55.258Z,-1.25
2019-02-06T04:48:55.235Z,-1.33
2019-02-06T04:49:55.263Z,-1.30
2019-02-06T04:50:55.234Z,-1.33
2019-02-06T04:51:55.204Z,-1.33
2019-02-06T04:52:55.207Z,-1.31
2019-02-06T04:53:55.187Z,-1.40
2019-02-06T04:54:55.188Z,-1.34
2019-02-06T04:55:55.167Z,-1.27
2019-02-06T04:56:55.154Z,-1.40
2019-02-06T04:57:55.141Z,-1.33
2019-02-06T04:58:55.136Z,-1.35
2019-02-06T04:59:55.147Z,-1.27
2019-02-06T05:00:55.110Z,-1.34
2019-02-06T05:01:55.093Z,-1.37
2019-02-06T05:02:55.082Z,-1.33
2019-02-06T05:03:55.128Z,-1.35
2019-02-06T05:04:55.068Z,-1.46
2019-02-06T05:05:55.065Z,-1.43
2019-02-06T05:06:55.036Z,-1.41
2019-02-06T05:07:55.035Z,-1.37
2019-02-06T05:08:55.024Z,-1.45
2019-02-06T05:09:55.005Z,-1.46
2019-02-06T05:10:55.010Z,-1.49
2019-02-06T05:11:55.069Z,-1.52
2019-02-06T05:12:54.974Z,-1.51
2019-02-06T05:13:54.971Z,-1.64
2019-02-06T05:14:54.955Z,-1.62
2019-02-06T05:15:54.962Z,-1.64
2019-02-06T05:16:54.934Z,-1.69
2019-02-06T05:17:55.949Z,-1.64
2019-02-06T05:18:54.909Z,-1.64
2019-02-06T05:19:54.905Z,-1.62
2019-02-06T05:20:54.893Z,-1.70
2019-02-06T05:21:54.908Z,-1.62
2019-02-06T05:22:54.880Z,-1.64
2019-02-06T05:23:54.855Z,-1.74
2019-02-06T05:24:54.851Z,-1.69
2019-02-06T05:25:54.850Z,-1.70
2019-02-06T05:26:54.838Z,-1.66
2019-02-06T05:27:54.819Z,-1.62
2019-02-06T05:28:54.818Z,-1.64
2019-02-06T05:29:54.789Z,-1.61
2019-02-06T05:30:54.787Z,-1.61
2019-02-06T05:31:54.788Z,-1.52
2019-02-06T05:32:54.758Z,-1.54
2019-02-06T05:33:54.747Z,-1.61
2019-02-06T05:34:54.741Z,-1.46
2019-02-06T05:35:54.744Z,-1.52
2019-02-06T05:36:54.746Z,-1.54
2019-02-06T05:37:54.704Z,-1.61
2019-02-06T05:38:54.697Z,-1.55
2019-02-06T05:39:54.683Z,-1.51
2019-02-06T05:40:54.679Z,-1.52
2019-02-06T05:41:54.679Z,-1.41
2019-02-06T05:42:54.650Z,-1.48
2019-02-06T05:43:54.651Z,-1.48
2019-02-06T05:44:54.645Z,-1.43
2019-02-06T05:45:54.619Z,-1.43
2019-02-06T05:46:54.631Z,-1.45
2019-02-06T05:47:54.597Z,-1.43
2019-02-06T05:48:54.590Z,-1.49
2019-02-06T05:49:54.576Z,-1.46
2019-02-06T05:50:54.567Z,-1.33
2019-02-06T05:51:54.572Z,-1.40
2019-02-06T05:52:54.543Z,-1.37
2019-02-06T05:53:54.530Z,-1.43
2019-02-06T05:54:54.523Z,-1.43
2019-02-06T05:55:54.514Z,-1.46
2019-02-06T05:56:54.539Z,-1.34
2019-02-06T05:57:54.496Z,-1.41
2019-02-06T05:58:54.481Z,-1.34
2019-02-06T05:59:54.467Z,-1.43
2019-02-06T06:00:54.463Z,-1.45
2019-02-06T06:01:54.460Z,-1.48
2019-02-06T06:02:54.455Z,-1.52
2019-02-06T06:03:54.605Z,-1.46
2019-02-06T06:04:54.425Z,-1.38
2019-02-06T06:05:54.407Z,-1.43
2019-02-06T06:06:54.401Z,-1.38
2019-02-06T06:07:54.405Z,-1.40
2019-02-06T06:08:54.369Z,-1.46
2019-02-06T06:09:54.363Z,-1.33
2019-02-06T06:10:54.350Z,-1.48
2019-02-06T06:11:54.352Z,-1.40
2019-02-06T06:12:54.355Z,-1.28
2019-02-06T06:13:54.320Z,-1.33
2019-02-06T06:14:54.325Z,-1.33
2019-02-06T06:15:54.304Z,-1.35
2019-02-06T06:16:54.285Z,-1.37
2019-02-06T06:17:54.293Z,-1.40
2019-02-06T06:18:54.268Z,-1.43
2019-02-06T06:19:54.259Z,-1.43
2019-02-06T06:20:54.376Z,-1.43
2019-02-06T06:21:54.236Z,-1.46
2019-02-06T06:22:54.240Z,-1.43
2019-02-06T06:23:54.208Z,-1.48
2019-02-06T06:24:54.199Z,-1.38
2019-02-06T06:25:54.196Z,-1.49
2019-02-06T06:26:54.178Z,-1.54
2019-02-06T06:27:54.199Z,-1.49
2019-02-06T06:28:54.169Z,-1.55
2019-02-06T06:29:54.147Z,-1.62
2019-02-06T06:30:54.141Z,-1.62
2019-02-06T06:31:54.131Z,-1.61
2019-02-06T06:32:54.130Z,-1.70
2019-02-06T06:33:54.105Z,-1.70
2019-02-06T06:34:54.094Z,-1.66
2019-02-06T06:35:54.085Z,-1.66
2019-02-06T06:36:56.801Z,-1.66
2019-02-06T06:37:59.409Z,-1.69
2019-02-06T06:38:55.067Z,-1.55
2019-02-06T06:39:54.039Z,-1.66
2019-02-06T06:40:54.026Z,-1.58
2019-02-06T06:41:54.020Z,-1.55
2019-02-06T06:42:54.015Z,-1.56
2019-02-06T06:43:54.016Z,-1.51
2019-02-06T06:44:53.983Z,-1.45
2019-02-06T06:45:53.984Z,-1.49
2019-02-06T06:46:53.981Z,-1.46
2019-02-06T06:47:53.972Z,-1.40
2019-02-06T06:48:53.974Z,-1.46
2019-02-06T06:49:53.935Z,-1.46
2019-02-06T06:50:53.919Z,-1.43
2019-02-06T06:51:53.946Z,-1.43
2019-02-06T06:52:53.897Z,-1.43
2019-02-06T06:53:53.905Z,-1.49
2019-02-06T06:54:53.876Z,-1.33
2019-02-06T06:55:53.871Z,-1.34
2019-02-06T06:56:53.858Z,-1.40
2019-02-06T06:57:53.840Z,-1.34
2019-02-06T06:58:53.853Z,-1.33
2019-02-06T06:59:55.616Z,-1.37
2019-02-06T07:00:53.807Z,-1.31
2019-02-06T07:01:53.798Z,-1.33
2019-02-06T07:02:53.789Z,-1.34
2019-02-06T07:03:53.800Z,-1.40
2019-02-06T07:04:53.770Z,-1.28
2019-02-06T07:05:53.756Z,-1.38
2019-02-06T07:06:53.744Z,-1.40
2019-02-06T07:07:53.734Z,-1.40
2019-02-06T07:08:53.740Z,-1.35
2019-02-06T07:09:53.712Z,-1.31
2019-02-06T07:10:53.704Z,-1.38
2019-02-06T07:11:53.695Z,-1.34
2019-02-06T07:12:53.682Z,-1.34
2019-02-06T07:13:53.690Z,-1.37
2019-02-06T07:14:53.680Z,-1.41
2019-02-06T07:15:53.648Z,-1.41
2019-02-06T07:16:53.645Z,-1.46
2019-02-06T07:17:53.637Z,-1.49
2019-02-06T07:18:53.616Z,-1.49
2019-02-06T07:19:53.632Z,-1.51
2019-02-06T07:20:53.595Z,-1.48
2019-02-06T07:21:53.583Z,-1.54
2019-02-06T07:22:53.683Z,-1.48
2019-02-06T07:23:53.568Z,-1.59
2019-02-06T07:24:53.573Z,-1.56
2019-02-06T07:25:53.539Z,-1.48
2019-02-06T07:26:53.531Z,-1.40
2019-02-06T07:27:53.518Z,-1.51
2019-02-06T07:28:53.536Z,-1.46
2019-02-06T07:29:53.513Z,-1.37
2019-02-06T07:30:53.501Z,-1.46
2019-02-06T07:31:53.475Z,-1.41
2019-02-06T07:32:53.463Z,-1.33
2019-02-06T07:33:53.457Z,-1.33
2019-02-06T07:34:53.460Z,-1.38
2019-02-06T07:35:53.438Z,-1.34
2019-02-06T07:36:53.422Z,-1.33
2019-02-06T07:37:53.412Z,-1.41
2019-02-06T07:38:53.398Z,-1.33
2019-02-06T07:39:53.414Z,-1.33
2019-02-06T07:40:53.377Z,-1.41
2019-02-06T07:41:53.379Z,-1.33
2019-02-06T07:42:53.362Z,-1.35
2019-02-06T07:43:53.363Z,-1.31
2019-02-06T07:44:53.351Z,-1.27
2019-02-06T07:45:53.353Z,-1.27
2019-02-06T07:46:53.310Z,-1.23
2019-02-06T07:47:53.308Z,-1.34
2019-02-06T07:48:53.293Z,-1.34
2019-02-06T07:49:53.281Z,-1.35
2019-02-06T07:50:53.294Z,-1.25
2019-02-06T07:51:53.273Z,-1.31
2019-02-06T07:52:53.249Z,-1.23
2019-02-06T07:53:53.262Z,-1.17
2019-02-06T07:54:53.229Z,-1.15
2019-02-06T07:55:53.239Z,-1.05
2019-02-06T07:56:53.207Z,-1.04
2019-02-06T07:57:53.220Z,-0.98
2019-02-06T07:58:53.186Z,-0.95
2019-02-06T07:59:53.174Z,-0.95
2019-02-06T08:00:53.193Z,-0.99
2019-02-06T08:01:53.157Z,-0.97
2019-02-06T08:02:53.147Z,-1.02
2019-02-06T08:03:53.132Z,-0.86
2019-02-06T08:04:53.118Z,-0.92
2019-02-06T08:05:53.126Z,-0.79
2019-02-06T08:06:53.102Z,-0.89
2019-02-06T08:07:53.094Z,-0.85
2019-02-06T08:08:53.090Z,-0.80
2019-02-06T08:09:53.096Z,-0.69
2019-02-06T08:10:53.088Z,-0.72
2019-02-06T08:11:53.053Z,-0.67
2019-02-06T08:12:53.035Z,-0.72
2019-02-06T08:13:53.023Z,-0.55
2019-02-06T08:14:53.075Z,-0.51
2019-02-06T08:15:53.022Z,-0.47
2019-02-06T08:16:53.025Z,-0.44
2019-02-06T08:17:52.994Z,-0.37
2019-02-06T08:18:53.006Z,-0.29
2019-02-06T08:19:52.960Z,-0.36
2019-02-06T08:20:52.987Z,-0.28
2019-02-06T08:21:52.942Z,-0.23
2019-02-06T08:22:52.932Z,-0.18
2019-02-06T08:23:52.919Z,-0.15
2019-02-06T08:24:52.909Z,-0.10
2019-02-06T08:25:52.897Z,-0.21
2019-02-06T08:26:52.899Z,-0.14
2019-02-06T08:27:52.878Z,-0.14
2019-02-06T08:28:52.858Z,-0.05
2019-02-06T08:29:52.848Z,-0.10
2019-02-06T08:30:52.866Z,0.00
2019-02-06T08:31:52.829Z,0.07
2019-02-06T08:32:52.815Z,0.11
2019-02-06T08:33:52.822Z,0.08
2019-02-06T08:34:52.794Z,0.17
2019-02-06T08:35:52.789Z,0.14
2019-02-06T08:36:52.794Z,0.20
2019-02-06T08:37:52.765Z,0.24
2019-02-06T08:38:55.517Z,0.23
2019-02-06T08:39:52.741Z,0.32
2019-02-06T08:40:52.730Z,0.46
2019-02-06T08:41:52.738Z,0.46
2019-02-06T08:42:52.705Z,0.51
2019-02-06T08:43:52.697Z,0.50
2019-02-06T08:44:52.685Z,0.57
2019-02-06T08:45:52.685Z,0.68
2019-02-06T08:46:52.699Z,0.60
2019-02-06T08:47:52.653Z,0.75
2019-02-06T08:48:52.639Z,0.60
2019-02-06T08:49:52.640Z,0.70
2019-02-06T08:50:52.635Z,0.83
2019-02-06T08:51:52.611Z,0.78
2019-02-06T08:52:52.615Z,0.86
2019-02-06T08:53:52.588Z,0.87
2019-02-06T08:54:52.575Z,0.94
2019-02-06T08:55:52.570Z,0.94
2019-02-06T08:56:52.558Z,1.02
2019-02-06T08:57:52.562Z,0.97
2019-02-06T08:58:52.534Z,1.00
2019-02-06T08:59:52.533Z,1.09
2019-02-06T09:00:52.519Z,1.14
2019-02-06T09:01:52.500Z,1.09
2019-02-06T09:02:52.522Z,1.20
2019-02-06T09:03:52.482Z,1.22
2019-02-06T09:04:55.932Z,1.29
2019-02-06T09:05:52.459Z,1.29
2019-02-06T09:06:52.446Z,1.33
2019-02-06T09:07:52.451Z,1.40
2019-02-06T09:08:59.687Z,1.37
2019-02-06T09:09:53.433Z,1.30
2019-02-06T09:10:52.404Z,1.40
2019-02-06T09:11:52.394Z,1.44
2019-02-06T09:12:52.394Z,1.45
2019-02-06T09:13:52.389Z,1.51
2019-02-06T09:14:52.367Z,1.55
2019-02-06T09:15:52.350Z,1.54
2019-02-06T09:16:52.340Z,1.63
2019-02-06T09:17:52.330Z,1.63
2019-02-06T09:18:52.335Z,1.63
2019-02-06T09:19:52.305Z,1.62
2019-02-06T09:20:53.075Z,1.76
2019-02-06T09:21:52.294Z,1.81
2019-02-06T09:22:52.284Z,1.80
2019-02-06T09:23:52.286Z,1.83
2019-02-06T09:24:52.257Z,1.90
2019-02-06T09:25:52.240Z,1.93
2019-02-06T09:26:52.235Z,2.02
2019-02-06T09:27:52.310Z,1.98
2019-02-06T09:28:52.247Z,2.06
2019-02-06T09:29:52.199Z,2.17
2019-02-06T09:30:52.202Z,2.18
2019-02-06T09:31:52.178Z,2.21
2019-02-06T09:32:52.170Z,2.23
2019-02-06T09:33:52.182Z,2.36
2019-02-06T09:34:52.147Z,2.31
2019-02-06T09:35:52.154Z,2.28
2019-02-06T09:36:52.123Z,2.17
2019-02-06T09:37:52.150Z,2.24
2019-02-06T09:38:52.154Z,2.25
2019-02-06T09:39:52.093Z,2.25
2019-02-06T09:40:52.094Z,2.21
2019-02-06T09:41:52.094Z,2.30
2019-02-06T09:42:52.077Z,2.34
2019-02-06T09:43:52.079Z,2.38
2019-02-06T09:44:52.053Z,2.42
2019-02-06T09:45:52.060Z,2.46
2019-02-06T09:46:52.011Z,2.54
2019-02-06T09:47:52.003Z,2.52
2019-02-06T09:48:51.997Z,2.59
2019-02-06T09:49:51.990Z,2.71
2019-02-06T09:50:51.993Z,2.71
2019-02-06T09:51:51.966Z,2.69
2019-02-06T09:52:51.963Z,2.74
2019-02-06T09:53:51.972Z,2.87
2019-02-06T09:54:51.941Z,2.82
2019-02-06T09:55:53.363Z,2.96
2019-02-06T09:56:51.905Z,3.02
2019-02-06T09:57:51.904Z,3.10
2019-02-06T09:58:51.887Z,3.08
2019-02-06T09:59:51.874Z,3.24
2019-02-06T10:00:51.880Z,3.24
2019-02-06T10:01:51.871Z,3.20
2019-02-06T10:02:51.857Z,3.29
2019-02-06T10:03:51.830Z,3.45
2019-02-06T10:04:51.838Z,3.36
2019-02-06T10:05:51.834Z,3.55
2019-02-06T10:06:54.389Z,3.61
2019-02-06T10:07:51.793Z,3.68
2019-02-06T10:08:51.785Z,3.76
2019-02-06T10:09:51.789Z,3.93
2019-02-06T10:10:51.760Z,4.08
2019-02-06T10:11:51.761Z,4.11
2019-02-06T10:12:51.740Z,4.30
2019-02-06T10:13:51.722Z,4.33
2019-02-06T10:14:51.763Z,4.40
2019-02-06T10:15:51.695Z,4.42
2019-02-06T10:16:51.715Z,4.37
2019-02-06T10:17:51.684Z,4.37
2019-02-06T10:18:51.667Z,4.51
2019-02-06T10:19:51.657Z,4.50
2019-02-06T10:20:51.655Z,4.60
2019-02-06T10:21:53.699Z,4.66
2019-02-06T10:22:51.624Z,4.59
2019-02-06T10:23:51.611Z,4.63
2019-02-06T10:24:51.603Z,4.72
2019-02-06T10:25:53.698Z,4.84
2019-02-06T10:26:51.612Z,4.85
2019-02-06T10:27:51.576Z,4.84
2019-02-06T10:28:51.556Z,4.99
2019-02-06T10:29:51.544Z,5.09
2019-02-06T10:30:51.540Z,5.21
2019-02-06T10:31:51.548Z,5.31
2019-02-06T10:32:51.530Z,5.30
2019-02-06T10:33:51.519Z,5.30
2019-02-06T10:34:51.502Z,5.33
2019-02-06T10:35:52.373Z,5.33
2019-02-06T10:36:51.471Z,5.33
2019-02-06T10:37:51.457Z,5.43
2019-02-06T10:38:51.463Z,5.54
2019-02-06T10:39:51.446Z,5.67
2019-02-06T10:40:51.435Z,5.72
2019-02-06T10:41:51.414Z,5.75
2019-02-06T10:42:51.591Z,5.83
2019-02-06T10:43:51.440Z,5.89
2019-02-06T10:44:51.387Z,5.78
2019-02-06T10:45:51.420Z,5.78
2019-02-06T10:46:51.362Z,5.74
2019-02-06T10:47:51.365Z,5.79
2019-02-06T10:48:51.349Z,6.41
2019-02-06T10:49:51.339Z,6.74
2019-02-06T10:50:51.327Z,6.84
2019-02-06T10:51:51.302Z,6.80
2019-02-06T10:52:51.302Z,6.79
2019-02-06T10:53:51.296Z,6.74
2019-02-06T10:54:51.285Z,6.61
2019-02-06T10:55:51.265Z,6.70
2019-02-06T10:56:51.248Z,6.71
2019-02-06T10:57:51.249Z,6.64
2019-02-06T10:58:51.248Z,6.80
2019-02-06T10:59:51.220Z,6.84
2019-02-06T11:00:51.205Z,6.79
2019-02-06T11:01:51.202Z,6.77
2019-02-06T11:02:51.181Z,6.77
2019-02-06T11:03:51.188Z,6.74
2019-02-06T11:04:51.170Z,6.79
2019-02-06T11:05:51.154Z,6.64
2019-02-06T11:06:51.152Z,6.66
2019-02-06T11:07:51.142Z,6.73
2019-02-06T11:08:51.252Z,6.73
2019-02-06T11:09:51.154Z,6.70
2019-02-06T11:10:51.095Z,6.59
2019-02-06T11:11:51.081Z,6.64
2019-02-06T11:12:51.078Z,6.69
2019-02-06T11:13:51.086Z,6.64
2019-02-06T11:14:51.096Z,6.69
2019-02-06T11:15:51.070Z,6.66
2019-02-06T11:16:51.031Z,6.58
2019-02-06T11:17:51.074Z,6.59
2019-02-06T11:18:51.045Z,6.62
2019-02-06T11:19:51.002Z,6.55
2019-02-06T11:20:50.987Z,6.73
2019-02-06T11:21:50.981Z,6.74
2019-02-06T11:22:50.964Z,6.84
2019-02-06T11:23:50.976Z,6.98
2019-02-06T11:24:50.938Z,7.09
2019-02-06T11:25:50.943Z,7.21
2019-02-06T11:26:50.919Z,7.17
2019-02-06T11:27:50.909Z,7.15
2019-02-06T11:28:50.924Z,7.07
2019-02-06T11:29:50.902Z,6.99
2019-02-06T11:30:50.871Z,6.99
2019-02-06T11:31:50.860Z,7.02
2019-02-06T11:32:50.855Z,7.06
2019-02-06T11:33:50.849Z,7.16
2019-02-06T11:34:50.907Z,7.21
2019-02-06T11:35:50.815Z,7.39
2019-02-06T11:36:50.806Z,7.52
2019-02-06T11:37:50.791Z,7.75
2019-02-06T11:38:50.784Z,7.72
2019-02-06T11:39:57.937Z,7.72
2019-02-06T11:40:51.772Z,7.83
2019-02-06T11:41:50.752Z,7.85
2019-02-06T11:42:50.738Z,7.86
2019-02-06T11:43:50.755Z,7.90
2019-02-06T11:44:50.744Z,7.95
2019-02-06T11:45:50.707Z,7.87
2019-02-06T11:46:50.705Z,7.75
2019-02-06T11:47:50.686Z,7.83
2019-02-06T11:48:50.681Z,7.92
2019-02-06T11:49:50.660Z,7.98
2019-02-06T11:50:50.670Z,8.05
2019-02-06T11:51:50.640Z,8.11
2019-02-06T11:52:50.631Z,8.22
2019-02-06T11:53:50.622Z,8.26
2019-02-06T11:54:50.634Z,8.33
2019-02-06T11:55:50.625Z,8.22
2019-02-06T11:56:50.595Z,8.07
2019-02-06T11:57:50.573Z,8.04
2019-02-06T11:58:50.561Z,7.98
2019-02-06T11:59:53.055Z,8.04
2019-02-06T12:00:50.608Z,8.01
2019-02-06T12:01:50.814Z,8.04
2019-02-06T12:02:50.521Z,8.02
2019-02-06T12:03:50.511Z,8.15
2019-02-06T12:04:50.518Z,8.26
2019-02-06T12:05:50.504Z,8.33
2019-02-06T12:06:50.574Z,8.26
2019-02-06T12:07:50.659Z,8.43
2019-02-06T12:08:50.454Z,8.40
2019-02-06T12:09:50.447Z,8.30
2019-02-06T12:10:50.475Z,8.29
2019-02-06T12:11:50.434Z,8.22
2019-02-06T12:12:50.434Z,8.11
2019-02-06T12:13:50.418Z,8.15
2019-02-06T12:14:50.401Z,8.02
2019-02-06T12:15:50.394Z,8.01
2019-02-06T12:16:50.366Z,7.95
2019-02-06T12:17:50.362Z,7.85
2019-02-06T12:18:50.365Z,7.86
2019-02-06T12:19:50.337Z,7.86
2019-02-06T12:20:50.368Z,7.87
2019-02-06T12:21:50.328Z,7.90
2019-02-06T12:22:50.332Z,7.87
2019-02-06T12:23:50.290Z,7.90
2019-02-06T12:24:50.286Z,8.00
2019-02-06T12:25:50.331Z,8.07
2019-02-06T12:26:50.271Z,8.11
2019-02-06T12:27:50.258Z,8.00
2019-02-06T12:28:50.238Z,8.10
2019-02-06T12:29:50.228Z,8.12
2019-02-06T12:30:50.219Z,8.25
2019-02-06T12:31:50.238Z,8.28
2019-02-06T12:32:52.172Z,8.23
2019-02-06T12:33:50.196Z,8.25
2019-02-06T12:34:50.173Z,8.12
2019-02-06T12:35:50.159Z,8.10
2019-02-06T12:36:50.199Z,8.04
2019-02-06T12:37:50.149Z,7.98
2019-02-06T12:38:53.442Z,8.04
2019-02-06T12:39:50.121Z,8.11
2019-02-06T12:40:50.102Z,8.11
2019-02-06T12:41:50.120Z,8.11
2019-02-06T12:42:50.084Z,8.01
2019-02-06T12:43:50.070Z,7.98
2019-02-06T12:44:50.070Z,7.98
2019-02-06T12:45:50.050Z,7.92
2019-02-06T12:46:50.046Z,7.90
2019-02-06T12:47:50.081Z,7.89
2019-02-06T12:48:50.026Z,7.85
2019-02-06T12:49:50.021Z,7.92
2019-02-06T12:50:50.118Z,8.00
2019-02-06T12:51:52.363Z,7.93
2019-02-06T12:52:50.003Z,8.00
2019-02-06T12:53:49.973Z,7.93
2019-02-06T12:54:49.954Z,8.04
2019-02-06T12:55:49.942Z,8.12
2019-02-06T12:56:49.938Z,8.07
2019-02-06T12:57:49.950Z,8.23
2019-02-06T12:58:49.917Z,8.25
2019-02-06T12:59:49.901Z,8.23
2019-02-06T13:00:49.905Z,8.11
2019-02-06T13:01:49.876Z,8.15
2019-02-06T13:02:49.888Z,8.15
2019-02-06T13:03:49.881Z,8.16
2019-02-06T13:04:49.845Z,8.20